Delhi, New York
Current Conditions -  °F | °C
As of 4:35 PM on Friday 24 Oct 2014 (Local Time) from KMSV Reporting Station
Clear Clear  
Wind Chill: 61°   Ceiling: Unl
Heat Index: 61°   Visibility: 10mi
Dew Point: 39°   Wind: 18mph
Humidity: 45%   Direction: 320°NW
Pressure: 29.8"   Gusts: 24mph
Location:  42.28°N, 74.92°W
Report Text: KMSV 242035Z AUTO 32016G21KT 10SM CLR 16/04 A2980 RMK AO1
Loading
Personal Weather Stations






























Interactive Weather Map
Tropical Storm Tracking
New forecast layout! Learn more

10-Day Weather Forecast

Advertisements
Track Severe Weather on mobile